Time;durP1;ratioP1;P1;durP2;ratioP2;P2;SDS_P1;SDS_P2;PMS_P1;PMS_P2;Temp;Humidity;BMP_temperature;BMP_pressure;BME280_temperature;BME280_humidity;BME280_pressure;Samples;Min_cycle;Max_cycle;Signal;HPM_P1;HPM_P2
2024/01/11 05:01:02;;;;;;;8.68;5.75;;;-2.90;99.90;;;;;;5584826;23;20743;-71
2024/01/11 05:03:30;;;;;;;18.08;9.57;;;-2.90;99.90;;;;;;4902622;29;20219;-70
2024/01/11 05:05:56;;;;;;;10.88;6.75;;;-2.90;99.90;;;;;;4907350;29;20233;-71
2024/01/11 05:08:23;;;;;;;5.65;5.05;;;-2.80;99.90;;;;;;4906159;29;20218;-70
2024/01/11 05:10:50;;;;;;;12.43;9.70;;;-2.80;99.90;;;;;;4902841;29;20244;-71
2024/01/11 05:13:17;;;;;;;13.38;7.07;;;-2.80;99.90;;;;;;4894041;29;20214;-70
2024/01/11 05:15:44;;;;;;;17.25;11.77;;;-2.80;99.90;;;;;;4888537;29;20219;-70
2024/01/11 05:18:12;;;;;;;17.33;10.63;;;-2.80;99.90;;;;;;4896416;29;20208;-70
2024/01/11 05:20:39;;;;;;;12.32;8.40;;;-2.80;99.90;;;;;;4889982;29;20228;-70
2024/01/11 05:23:06;;;;;;;20.38;8.85;;;-2.80;99.90;;;;;;4890051;29;20203;-70
2024/01/11 05:25:33;;;;;;;17.48;7.78;;;-2.70;99.90;;;;;;4883570;29;20299;-70
2024/01/11 05:28:00;;;;;;;11.93;8.00;;;-2.70;99.90;;;;;;4888100;29;20590;-70
2024/01/11 05:30:27;;;;;;;19.65;9.93;;;-2.70;99.90;;;;;;4887960;29;22020;-70
2024/01/11 05:32:54;;;;;;;16.60;6.75;;;-2.70;99.90;;;;;;4886460;29;20227;-70
2024/01/11 05:35:23;;;;;;;17.95;9.93;;;-2.60;99.90;;;;;;4893256;29;20212;-70
2024/01/11 05:37:50;;;;;;;18.88;8.63;;;-2.60;99.90;;;;;;4893488;29;20289;-70
2024/01/11 05:40:17;;;;;;;9.43;6.13;;;-2.60;99.90;;;;;;4891956;29;20216;-70
2024/01/11 05:42:44;;;;;;;21.20;10.10;;;-2.60;99.90;;;;;;4897013;29;20734;-70
2024/01/11 05:45:10;;;;;;;16.77;7.63;;;-2.60;99.90;;;;;;4891544;29;20209;-70
2024/01/11 05:47:37;;;;;;;24.98;8.40;;;-2.50;99.90;;;;;;4892563;29;20207;-71
2024/01/11 05:50:05;;;;;;;13.25;7.75;;;-2.60;99.90;;;;;;4888828;29;20280;-70
2024/01/11 05:52:33;;;;;;;21.90;9.10;;;-2.50;99.90;;;;;;4893721;29;20223;-70
2024/01/11 05:54:59;;;;;;;12.68;6.82;;;-2.50;99.90;;;;;;4892118;29;20588;-70
2024/01/11 05:57:26;;;;;;;16.10;8.27;;;-2.50;99.90;;;;;;4892635;29;20212;-69
2024/01/11 05:59:53;;;;;;;10.80;8.73;;;-2.50;99.90;;;;;;4892467;29;20212;-69
2024/01/11 06:02:22;;;;;;;17.65;10.02;;;-2.50;99.90;;;;;;4895983;29;20249;-71
2024/01/11 06:04:49;;;;;;;22.88;10.07;;;-2.40;99.90;;;;;;4891108;29;20234;-70
2024/01/11 06:07:14;;;;;;;13.68;7.65;;;-2.40;99.90;;;;;;4892284;29;20299;-70
2024/01/11 06:09:43;;;;;;;14.80;10.27;;;-2.30;99.90;;;;;;4891375;29;20258;-71
2024/01/11 06:12:10;;;;;;;19.73;10.35;;;-2.30;99.90;;;;;;4891362;29;20246;-71
2024/01/11 06:14:36;;;;;;;18.48;7.30;;;-2.30;99.90;;;;;;4894002;29;20210;-70
2024/01/11 06:17:03;;;;;;;13.68;7.25;;;-2.30;99.90;;;;;;4883344;29;20212;-71
2024/01/11 06:19:30;;;;;;;21.02;9.75;;;-2.20;99.90;;;;;;4887889;29;20564;-71
2024/01/11 06:21:56;;;;;;;15.05;7.47;;;-2.20;99.90;;;;;;4892328;29;20223;-71
2024/01/11 06:24:23;;;;;;;18.88;12.55;;;-2.20;99.90;;;;;;4893733;29;20226;-70
2024/01/11 06:26:51;;;;;;;17.15;9.25;;;-2.10;99.90;;;;;;4888440;29;20689;-70
2024/01/11 06:29:18;;;;;;;27.05;10.55;;;-2.10;99.90;;;;;;4890173;29;20281;-69
2024/01/11 06:31:44;;;;;;;22.73;11.30;;;-2.10;99.90;;;;;;4895638;29;20242;-71
2024/01/11 06:34:11;;;;;;;25.25;12.55;;;-2.10;99.90;;;;;;4888771;29;20217;-71
2024/01/11 06:36:38;;;;;;;22.05;12.65;;;-2.00;99.90;;;;;;4890239;29;20216;-71
2024/01/11 06:39:05;;;;;;;28.90;14.70;;;-2.00;99.90;;;;;;4893439;29;20227;-71
2024/01/11 06:41:31;;;;;;;26.85;12.07;;;-2.00;99.90;;;;;;4889191;29;20724;-70
2024/01/11 06:43:59;;;;;;;16.02;8.30;;;-2.00;99.90;;;;;;4890870;29;20715;-71
2024/01/11 06:46:26;;;;;;;16.80;9.05;;;-2.00;99.90;;;;;;4886354;29;20225;-71
2024/01/11 06:48:53;;;;;;;14.60;8.68;;;-2.00;99.90;;;;;;4894295;29;20208;-70
2024/01/11 06:51:22;;;;;;;18.75;8.95;;;-2.00;99.90;;;;;;4890692;29;20231;-71
2024/01/11 06:53:48;;;;;;;20.55;12.38;;;-2.00;99.90;;;;;;4895347;29;20211;-70
2024/01/11 06:56:16;;;;;;;24.00;12.88;;;-2.00;99.90;;;;;;4882850;29;20216;-71
2024/01/11 06:58:43;;;;;;;23.75;11.32;;;-2.00;99.90;;;;;;4892027;29;20601;-70
2024/01/11 07:01:11;;;;;;;25.67;11.45;;;-2.00;99.90;;;;;;4884831;29;20251;-71
2024/01/11 07:03:38;;;;;;;20.42;8.20;;;-1.90;99.90;;;;;;4889435;29;20207;-71
2024/01/11 07:06:05;;;;;;;36.47;17.45;;;-1.90;99.90;;;;;;4885081;29;20685;-71
2024/01/11 07:08:32;;;;;;;24.42;10.18;;;-1.90;99.90;;;;;;4888210;29;20686;-71
2024/01/11 07:10:59;;;;;;;15.43;11.30;;;-1.90;99.90;;;;;;4889416;29;20243;-71
2024/01/11 07:13:26;;;;;;;22.20;12.27;;;-1.90;99.90;;;;;;4884152;29;20302;-71
2024/01/11 07:15:52;;;;;;;21.80;10.85;;;-1.80;99.90;;;;;;4888485;29;20208;-71
2024/01/11 07:18:20;;;;;;;14.07;9.80;;;-1.80;99.90;;;;;;4887336;29;20216;-71
2024/01/11 07:20:47;;;;;;;23.35;10.35;;;-1.80;99.90;;;;;;4888813;29;20239;-71
2024/01/11 07:23:14;;;;;;;22.42;8.45;;;-1.80;99.90;;;;;;4893349;29;20221;-71
2024/01/11 07:25:41;;;;;;;20.92;10.40;;;-1.80;99.90;;;;;;4895383;29;20242;-71
2024/01/11 07:28:08;;;;;;;20.95;10.55;;;-1.80;99.90;;;;;;4892338;29;20631;-71
2024/01/11 07:30:35;;;;;;;20.75;8.98;;;-1.70;99.90;;;;;;4891313;29;20321;-71
2024/01/11 07:33:02;;;;;;;22.00;11.30;;;-1.70;99.90;;;;;;4891242;29;20214;-71
2024/01/11 07:35:30;;;;;;;29.15;10.10;;;-1.70;99.90;;;;;;4886051;29;20291;-71
2024/01/11 07:37:57;;;;;;;23.55;10.15;;;-1.60;99.90;;;;;;4890807;29;20215;-71
2024/01/11 07:40:24;;;;;;;39.38;10.18;;;-1.60;99.90;;;;;;4881156;29;20208;-71
2024/01/11 07:42:51;;;;;;;16.20;8.15;;;-1.50;99.90;;;;;;4892865;29;20302;-72
2024/01/11 07:45:18;;;;;;;29.42;12.07;;;-1.50;99.90;;;;;;4884874;29;20294;-71
2024/01/11 07:47:45;;;;;;;24.05;11.77;;;-1.40;99.90;;;;;;4881696;29;20298;-71
2024/01/11 07:50:12;;;;;;;20.15;10.18;;;-1.30;99.90;;;;;;4884596;29;20307;-71
2024/01/11 07:52:41;;;;;;;20.08;10.93;;;-1.30;99.90;;;;;;4891639;29;20550;-71
2024/01/11 07:55:12;;;;;;;20.05;9.75;;;-1.30;99.90;;;;;;4891973;29;20203;-71
2024/01/11 07:57:39;;;;;;;12.50;8.00;;;-1.30;99.90;;;;;;4887914;29;20246;-71
2024/01/11 08:00:07;;;;;;;20.10;10.55;;;-1.20;99.90;;;;;;4887897;29;20298;-71
2024/01/11 08:02:34;;;;;;;22.67;9.57;;;-1.20;99.90;;;;;;4890949;29;20255;-71
2024/01/11 08:05:01;;;;;;;23.65;10.02;;;-1.20;99.90;;;;;;4889926;29;20218;-72
2024/01/11 08:07:27;;;;;;;31.73;11.05;;;-1.20;99.90;;;;;;4878339;29;20211;-72
2024/01/11 08:09:56;;;;;;;23.42;10.50;;;-1.20;99.90;;;;;;4884488;29;20577;-71
2024/01/11 08:12:23;;;;;;;29.30;13.85;;;-1.10;99.90;;;;;;4886841;29;20245;-71
2024/01/11 08:14:49;;;;;;;21.00;11.05;;;-1.10;99.90;;;;;;4885550;29;20219;-71
2024/01/11 08:17:16;;;;;;;15.45;7.55;;;-1.10;99.90;;;;;;4888251;29;20212;-72
2024/01/11 08:19:43;;;;;;;21.63;9.38;;;-1.00;99.90;;;;;;4883855;29;20264;-73
2024/01/11 08:22:11;;;;;;;20.80;11.18;;;-1.00;99.90;;;;;;4886256;29;20231;-71
2024/01/11 08:24:38;;;;;;;24.70;9.35;;;-1.00;99.90;;;;;;4887664;29;20243;-71
2024/01/11 08:27:06;;;;;;;23.45;11.77;;;-0.90;99.90;;;;;;4885041;29;20222;-72
2024/01/11 08:29:33;;;;;;;15.73;9.20;;;-0.90;99.90;;;;;;4892362;29;20264;-72
2024/01/11 08:32:01;;;;;;;14.43;7.63;;;-0.90;99.90;;;;;;4885810;29;20232;-72
2024/01/11 08:34:27;;;;;;;19.45;9.32;;;-0.80;99.90;;;;;;4884002;29;20247;-72
2024/01/11 08:36:54;;;;;;;34.17;10.10;;;-0.80;99.90;;;;;;4883598;29;20203;-72
2024/01/11 08:39:22;;;;;;;16.70;10.05;;;-0.70;99.90;;;;;;4885930;29;20210;-72
2024/01/11 08:41:49;;;;;;;16.38;7.70;;;-0.70;99.90;;;;;;4890590;29;20219;-72
2024/01/11 08:44:18;;;;;;;15.68;8.80;;;-0.70;99.90;;;;;;4887663;29;20215;-71
2024/01/11 08:46:44;;;;;;;20.67;13.57;;;-0.60;99.90;;;;;;4886990;29;20528;-72
2024/01/11 08:49:11;;;;;;;17.27;10.43;;;-0.60;99.90;;;;;;4879648;29;20318;-72
2024/01/11 08:51:39;;;;;;;16.63;9.60;;;-0.60;99.90;;;;;;4891538;29;20235;-72
2024/01/11 08:54:08;;;;;;;19.08;9.98;;;-0.50;99.90;;;;;;4879582;29;20212;-73
2024/01/11 08:56:36;;;;;;;21.02;8.55;;;-0.50;99.90;;;;;;4881881;29;20259;-73
2024/01/11 08:59:03;;;;;;;16.40;8.20;;;-0.40;99.90;;;;;;4883344;29;20207;-73
2024/01/11 09:01:32;;;;;;;18.67;11.55;;;-0.40;99.90;;;;;;4884895;29;20236;-72
2024/01/11 09:03:58;;;;;;;19.73;9.05;;;-0.30;99.90;;;;;;4893298;29;20215;-72
2024/01/11 09:06:25;;;;;;;20.13;10.45;;;-0.30;99.90;;;;;;4895004;29;20267;-71
2024/01/11 09:08:52;;;;;;;20.98;9.57;;;-0.30;99.90;;;;;;4894672;29;20376;-72
2024/01/11 09:11:19;;;;;;;23.83;8.68;;;-0.30;99.90;;;;;;4890997;29;20232;-71
2024/01/11 09:13:46;;;;;;;29.52;14.13;;;-0.20;99.90;;;;;;4890212;29;20702;-72
2024/01/11 09:16:16;;;;;;;18.23;8.57;;;-0.20;99.90;;;;;;4892087;29;20215;-72
2024/01/11 09:18:45;;;;;;;19.23;8.10;;;-0.20;99.90;;;;;;4884545;29;20271;-71
2024/01/11 09:21:12;;;;;;;24.92;9.95;;;-0.20;99.90;;;;;;4893652;29;20227;-71
2024/01/11 09:23:39;;;;;;;31.40;11.27;;;-0.10;99.90;;;;;;4895509;29;20215;-72
2024/01/11 09:26:06;;;;;;;27.05;11.57;;;-0.10;99.90;;;;;;4894203;29;20211;-72
2024/01/11 09:28:32;;;;;;;20.30;11.18;;;0.00;99.90;;;;;;4885991;29;20622;-72
2024/01/11 09:31:01;;;;;;;18.60;9.20;;;0.00;99.90;;;;;;4887872;29;20243;-71
2024/01/11 09:33:28;;;;;;;15.45;7.95;;;0.10;99.90;;;;;;4889787;29;20213;-71
2024/01/11 09:35:56;;;;;;;13.70;7.20;;;0.10;99.90;;;;;;4885803;29;20211;-71
2024/01/11 09:38:23;;;;;;;7.82;6.85;;;0.20;99.90;;;;;;4894440;29;20212;-71
2024/01/11 09:40:58;;;;;;;16.30;7.43;;;0.20;99.90;;;;;;4886522;29;20232;-71
2024/01/11 09:43:26;;;;;;;6.82;5.55;;;0.20;99.90;;;;;;4892835;29;20237;-71
2024/01/11 09:45:56;;;;;;;15.02;8.35;;;0.30;99.90;;;;;;4890415;29;20237;-71
2024/01/11 09:48:25;;;;;;;10.88;5.05;;;0.30;99.90;;;;;;4894075;29;20215;-71
2024/01/11 09:50:53;;;;;;;16.70;7.88;;;0.40;99.90;;;;;;4887608;29;20240;-71
2024/01/11 09:53:24;;;;;;;14.05;7.32;;;0.40;99.90;;;;;;4884598;29;20266;-71
2024/01/11 09:55:51;;;;;;;18.33;7.47;;;0.40;99.90;;;;;;4888460;29;20306;-71
2024/01/11 09:58:20;;;;;;;9.02;5.07;;;0.40;99.90;;;;;;4888434;29;20207;-71
2024/01/11 10:00:50;;;;;;;22.23;6.80;;;0.50;99.90;;;;;;4890844;29;20239;-72
2024/01/11 10:03:17;;;;;;;11.68;7.00;;;0.50;99.90;;;;;;4883694;29;20219;-72
2024/01/11 10:05:45;;;;;;;11.18;5.95;;;0.50;99.90;;;;;;4890664;29;20262;-72
2024/01/11 10:08:12;;;;;;;14.20;8.07;;;0.50;99.90;;;;;;4890375;29;20722;-72
2024/01/11 10:10:40;;;;;;;11.95;6.60;;;0.60;99.90;;;;;;4889123;29;20625;-72
2024/01/11 10:13:07;;;;;;;13.05;5.05;;;0.60;99.90;;;;;;4882624;29;20235;-72
2024/01/11 10:15:34;;;;;;;18.10;7.03;;;0.70;99.90;;;;;;4887890;29;20230;-72
2024/01/11 10:18:00;;;;;;;14.80;7.10;;;0.70;99.90;;;;;;4890855;29;20227;-72
2024/01/11 10:20:29;;;;;;;10.57;7.75;;;0.70;99.90;;;;;;4886115;29;20212;-72
2024/01/11 10:22:57;;;;;;;24.40;9.52;;;0.70;99.90;;;;;;4885947;29;20211;-71
2024/01/11 10:25:25;;;;;;;9.60;6.32;;;0.70;99.90;;;;;;4887953;29;20207;-71
2024/01/11 10:27:53;;;;;;;17.52;6.57;;;0.70;99.90;;;;;;4891378;29;20697;-71
2024/01/11 10:30:22;;;;;;;19.42;6.97;;;0.70;99.90;;;;;;4889474;29;20214;-71
2024/01/11 10:32:49;;;;;;;15.45;7.65;;;0.70;99.90;;;;;;4891279;29;20234;-71
2024/01/11 10:35:17;;;;;;;15.10;7.75;;;0.70;99.90;;;;;;4889050;29;20645;-71
2024/01/11 10:37:45;;;;;;;18.23;6.82;;;0.70;99.90;;;;;;4885141;29;20219;-71
2024/01/11 10:40:13;;;;;;;16.88;8.27;;;0.70;99.90;;;;;;4887288;29;20215;-72
2024/01/11 10:42:43;;;;;;;12.35;6.10;;;0.70;99.90;;;;;;4888706;29;20206;-71
2024/01/11 10:45:16;;;;;;;12.75;5.65;;;0.70;99.90;;;;;;4890203;29;20220;-72
2024/01/11 10:47:51;;;;;;;17.20;6.93;;;0.70;99.90;;;;;;4883901;29;20291;-72
2024/01/11 10:50:19;;;;;;;10.93;7.45;;;0.70;99.90;;;;;;4886325;29;20212;-72
2024/01/11 10:52:57;;;;;;;16.38;6.88;;;0.70;99.90;;;;;;4887096;29;20312;-78
2024/01/11 10:55:25;;;;;;;21.75;10.43;;;0.80;99.90;;;;;;4893256;29;20218;-72
2024/01/11 10:57:54;;;;;;;13.23;7.30;;;0.80;99.90;;;;;;4883713;29;20231;-72
2024/01/11 11:00:22;;;;;;;13.75;7.55;;;0.90;99.90;;;;;;4888760;29;20239;-72
2024/01/11 11:02:52;;;;;;;14.63;9.18;;;0.90;99.90;;;;;;4883334;29;20216;-72
2024/01/11 11:05:20;;;;;;;24.17;9.27;;;0.90;99.90;;;;;;4887475;29;20204;-71
2024/01/11 11:07:48;;;;;;;18.85;8.43;;;0.90;99.90;;;;;;4889686;29;20259;-72
2024/01/11 11:10:16;;;;;;;13.82;7.72;;;1.00;99.90;;;;;;4887357;29;20577;-72
2024/01/11 11:12:45;;;;;;;14.07;8.20;;;1.00;99.90;;;;;;4883587;29;20580;-72
2024/01/11 11:15:13;;;;;;;14.95;8.73;;;1.00;99.90;;;;;;4893405;29;20215;-72
2024/01/11 11:17:43;;;;;;;17.02;7.78;;;1.00;99.90;;;;;;4892911;29;20224;-73
2024/01/11 11:20:12;;;;;;;17.25;9.75;;;1.00;99.90;;;;;;4887517;29;20655;-72
2024/01/11 11:22:42;;;;;;;20.02;7.95;;;1.00;99.90;;;;;;4890019;29;20209;-72
2024/01/11 11:25:10;;;;;;;11.90;7.15;;;1.00;99.90;;;;;;4886997;29;20294;-72
2024/01/11 11:27:37;;;;;;;17.40;7.47;;;1.10;99.90;;;;;;4882422;29;20207;-72
2024/01/11 11:30:05;;;;;;;19.98;7.80;;;1.10;99.90;;;;;;4887748;29;20584;-71
2024/01/11 11:32:39;;;;;;;9.90;8.73;;;1.20;99.90;;;;;;4883494;29;20227;-72
2024/01/11 11:35:08;;;;;;;21.52;8.40;;;1.20;99.90;;;;;;4883336;29;20219;-72
2024/01/11 11:37:37;;;;;;;12.20;5.35;;;1.20;99.90;;;;;;4887648;29;20207;-72
2024/01/11 11:40:04;;;;;;;16.55;9.18;;;1.20;99.90;;;;;;4886798;29;20235;-72
2024/01/11 11:42:31;;;;;;;12.40;6.30;;;1.30;99.90;;;;;;4884593;29;20257;-72
2024/01/11 11:44:58;;;;;;;14.02;6.55;;;1.30;99.90;;;;;;4887922;29;20220;-72
2024/01/11 11:47:32;;;;;;;15.43;6.55;;;1.30;99.90;;;;;;4889476;29;20217;-72
2024/01/11 11:50:05;;;;;;;11.85;6.65;;;1.40;99.90;;;;;;4889110;29;20212;-72
2024/01/11 11:52:34;;;;;;;16.25;8.20;;;1.40;99.90;;;;;;4893660;29;20290;-72
2024/01/11 11:55:02;;;;;;;12.63;6.43;;;1.40;99.90;;;;;;4886907;29;20308;-72
2024/01/11 11:57:29;;;;;;;12.30;7.03;;;1.40;99.90;;;;;;4894799;29;20206;-72
2024/01/11 11:59:57;;;;;;;12.93;6.13;;;1.50;99.90;;;;;;4888540;29;20213;-72
2024/01/11 12:02:26;;;;;;;10.75;6.10;;;1.50;99.90;;;;;;4885070;29;20239;-72
2024/01/11 12:04:53;;;;;;;8.20;6.43;;;1.50;99.90;;;;;;4889474;29;20596;-73
2024/01/11 12:07:22;;;;;;;15.82;6.43;;;1.60;99.90;;;;;;4888046;29;20219;-73
2024/01/11 12:09:51;;;;;;;9.43;5.63;;;1.60;99.90;;;;;;4889154;29;20634;-72
2024/01/11 12:12:20;;;;;;;13.93;5.60;;;1.60;99.90;;;;;;4878213;29;20238;-72
2024/01/11 12:14:47;;;;;;;8.40;4.20;;;1.60;99.90;;;;;;4888540;29;20279;-72
2024/01/11 12:17:14;;;;;;;11.02;6.53;;;1.60;99.90;;;;;;4885550;29;20212;-73
2024/01/11 12:19:41;;;;;;;17.10;6.38;;;1.60;99.90;;;;;;4892763;29;20226;-72
2024/01/11 12:22:07;;;;;;;10.10;5.10;;;1.60;99.90;;;;;;4880593;29;20226;-73
2024/01/11 12:24:34;;;;;;;7.65;6.90;;;1.60;99.90;;;;;;4892190;29;20228;-71
2024/01/11 12:27:03;;;;;;;11.80;6.28;;;1.70;99.90;;;;;;4893437;29;20220;-72
2024/01/11 12:29:30;;;;;;;6.95;4.97;;;1.70;99.90;;;;;;4890571;29;20215;-71
2024/01/11 12:31:58;;;;;;;15.68;7.22;;;1.70;99.90;;;;;;4886595;29;20227;-72
2024/01/11 12:34:25;;;;;;;7.93;6.40;;;1.70;99.90;;;;;;4890965;29;20212;-72
2024/01/11 12:36:55;;;;;;;14.65;6.32;;;1.70;99.90;;;;;;4896055;29;20670;-72
2024/01/11 12:39:25;;;;;;;14.27;5.32;;;1.70;99.90;;;;;;4887418;29;20215;-72
2024/01/11 12:41:56;;;;;;;6.53;4.38;;;1.70;99.90;;;;;;4892050;29;20232;-72
2024/01/11 12:44:25;;;;;;;14.88;7.38;;;1.80;99.90;;;;;;4891904;29;20620;-72
2024/01/11 12:46:52;;;;;;;9.95;6.68;;;1.80;99.90;;;;;;4885825;29;20219;-73
2024/01/11 12:49:19;;;;;;;12.20;5.93;;;1.80;99.90;;;;;;4891522;29;20207;-72
2024/01/11 12:51:46;;;;;;;12.18;7.90;;;1.90;99.90;;;;;;4893411;29;20322;-73
2024/01/11 12:54:14;;;;;;;23.52;7.50;;;1.90;99.90;;;;;;4897268;29;20239;-74
2024/01/11 12:56:44;;;;;;;16.77;6.00;;;1.90;99.90;;;;;;4887662;29;20216;-72
2024/01/11 12:59:11;;;;;;;8.07;6.18;;;1.90;99.90;;;;;;4884578;29;20324;-72
2024/01/11 13:01:40;;;;;;;11.68;5.97;;;1.90;99.90;;;;;;4888355;29;20583;-72
2024/01/11 13:04:10;;;;;;;20.02;8.90;;;1.80;99.90;;;;;;4889082;29;20207;-73
2024/01/11 13:06:36;;;;;;;12.98;7.63;;;1.80;99.90;;;;;;4898856;29;20211;-71
2024/01/11 13:09:04;;;;;;;14.20;5.97;;;1.80;99.90;;;;;;4895746;29;20226;-71
2024/01/11 13:11:31;;;;;;;15.55;8.18;;;1.80;99.90;;;;;;4896554;29;20227;-71
2024/01/11 13:14:01;;;;;;;9.80;7.43;;;1.80;99.90;;;;;;4896337;29;20258;-71
2024/01/11 13:16:27;;;;;;;18.77;9.30;;;1.80;99.90;;;;;;4888278;29;20663;-72
2024/01/11 13:18:55;;;;;;;13.63;6.72;;;1.70;99.90;;;;;;4892088;29;20298;-71
2024/01/11 13:21:22;;;;;;;23.25;9.48;;;1.70;99.90;;;;;;4897542;29;20223;-72
2024/01/11 13:23:49;;;;;;;15.77;7.32;;;1.70;99.90;;;;;;4897333;29;20211;-71
2024/01/11 13:26:16;;;;;;;13.80;7.32;;;1.70;99.90;;;;;;4883272;29;20212;-71
2024/01/11 13:28:42;;;;;;;16.98;8.80;;;1.70;99.90;;;;;;4896302;29;20272;-71
2024/01/11 13:31:10;;;;;;;12.90;7.22;;;1.70;99.90;;;;;;4891035;29;20223;-71
2024/01/11 13:33:38;;;;;;;9.07;6.95;;;1.70;99.90;;;;;;4893522;29;20219;-71
2024/01/11 13:36:08;;;;;;;11.77;7.63;;;1.70;99.90;;;;;;4888127;29;20210;-71
2024/01/11 13:38:35;;;;;;;10.90;5.97;;;1.70;99.90;;;;;;4885825;29;20212;-71
2024/01/11 13:41:02;;;;;;;16.88;8.10;;;1.70;99.90;;;;;;4889147;29;20232;-73
2024/01/11 13:43:29;;;;;;;12.85;7.20;;;1.70;99.90;;;;;;4897152;29;20573;-71
2024/01/11 13:45:55;;;;;;;7.75;5.57;;;1.80;99.90;;;;;;4888736;29;20671;-72
2024/01/11 13:48:22;;;;;;;11.68;7.95;;;1.80;99.90;;;;;;4888583;29;20214;-71
2024/01/11 13:50:49;;;;;;;16.67;8.73;;;1.80;99.90;;;;;;4889883;29;20236;-72
2024/01/11 13:53:17;;;;;;;17.35;7.60;;;1.80;99.90;;;;;;4892511;29;20224;-72
2024/01/11 13:55:44;;;;;;;18.05;8.55;;;1.80;99.90;;;;;;4892601;29;20215;-72
2024/01/11 13:58:12;;;;;;;15.27;8.10;;;1.80;99.90;;;;;;4881205;29;20238;-72
2024/01/11 14:00:39;;;;;;;12.52;8.27;;;1.80;99.90;;;;;;4888865;29;20235;-71
2024/01/11 14:03:06;;;;;;;13.27;6.20;;;1.80;99.90;;;;;;4890388;29;20668;-72
2024/01/11 14:05:33;;;;;;;13.20;7.32;;;1.70;99.90;;;;;;4895300;29;20215;-72
2024/01/11 14:08:01;;;;;;;27.75;11.15;;;1.80;99.90;;;;;;4887222;29;20218;-72
2024/01/11 14:10:29;;;;;;;14.20;7.57;;;1.70;99.90;;;;;;4896624;29;20211;-72
2024/01/11 14:12:55;;;;;;;15.27;6.72;;;1.70;99.90;;;;;;4886266;29;20244;-72
2024/01/11 14:15:23;;;;;;;20.02;8.43;;;1.70;99.90;;;;;;4889146;29;20211;-72
2024/01/11 14:17:50;;;;;;;18.33;7.53;;;1.70;99.90;;;;;;4885004;29;20684;-72
2024/01/11 14:20:17;;;;;;;15.30;7.50;;;1.70;99.90;;;;;;4887622;29;20250;-73
2024/01/11 14:22:49;;;;;;;15.05;8.20;;;1.70;99.90;;;;;;4893600;29;20538;-72
2024/01/11 14:25:16;;;;;;;17.00;6.20;;;1.60;99.90;;;;;;4893020;29;20291;-73
2024/01/11 14:27:45;;;;;;;12.15;8.27;;;1.80;99.90;;;;;;4881722;29;20690;-73
2024/01/11 14:30:13;;;;;;;13.70;7.90;;;1.80;99.90;;;;;;4885783;29;20302;-72
2024/01/11 14:32:40;;;;;;;12.63;6.60;;;1.70;99.90;;;;;;4889901;29;20254;-72
2024/01/11 14:35:08;;;;;;;16.38;9.10;;;1.70;99.90;;;;;;4893469;29;20224;-73
2024/01/11 14:37:37;;;;;;;11.20;5.75;;;1.70;99.90;;;;;;4888072;29;20204;-72
2024/01/11 14:40:05;;;;;;;17.95;10.77;;;1.70;99.90;;;;;;4887992;29;20208;-73
2024/01/11 14:42:33;;;;;;;16.85;7.60;;;1.70;99.90;;;;;;4893032;29;20281;-73
2024/01/11 14:45:01;;;;;;;21.50;10.02;;;1.70;99.90;;;;;;4887524;29;20735;-73
2024/01/11 14:47:28;;;;;;;16.52;9.35;;;1.70;99.90;;;;;;4893859;29;20211;-73
2024/01/11 14:49:54;;;;;;;29.98;10.10;;;1.70;99.90;;;;;;4894331;29;20212;-73
2024/01/11 14:52:21;;;;;;;17.60;10.57;;;1.70;99.90;;;;;;4886271;29;20231;-72
2024/01/11 14:54:48;;;;;;;21.15;10.13;;;1.70;99.90;;;;;;4889296;29;20233;-73
2024/01/11 14:57:15;;;;;;;24.45;9.75;;;1.70;99.90;;;;;;4888198;29;20216;-73
2024/01/11 14:59:41;;;;;;;15.95;8.98;;;1.70;99.90;;;;;;4887238;29;20209;-73
2024/01/11 15:02:10;;;;;;;19.63;8.52;;;1.70;99.90;;;;;;4888378;29;20248;-72
2024/01/11 15:04:36;;;;;;;16.20;7.90;;;1.70;99.90;;;;;;4889487;29;20235;-72
2024/01/11 15:07:03;;;;;;;14.35;10.80;;;1.70;99.90;;;;;;4889955;29;20212;-73
2024/01/11 15:09:30;;;;;;;19.15;9.52;;;1.70;99.90;;;;;;4893538;29;20207;-73
2024/01/11 15:11:56;;;;;;;22.08;10.40;;;1.70;99.90;;;;;;4888957;29;20264;-73
2024/01/11 15:14:23;;;;;;;13.75;7.53;;;1.70;99.90;;;;;;4892083;29;20231;-73
2024/01/11 15:16:50;;;;;;;9.23;6.90;;;1.70;99.90;;;;;;4888697;29;20211;-73
2024/01/11 15:19:18;;;;;;;12.50;7.07;;;1.70;99.90;;;;;;4889786;29;20231;-73
2024/01/11 15:21:44;;;;;;;21.02;6.28;;;1.70;99.90;;;;;;4892062;29;20231;-73
2024/01/11 15:24:11;;;;;;;13.15;9.63;;;1.70;99.90;;;;;;4888498;29;20211;-73
2024/01/11 15:26:38;;;;;;;19.80;7.18;;;1.70;99.90;;;;;;4888812;29;20211;-74
2024/01/11 15:29:05;;;;;;;24.75;8.57;;;1.70;99.90;;;;;;4889385;29;20211;-73
2024/01/11 15:31:35;;;;;;;13.40;7.55;;;1.70;99.90;;;;;;4892346;29;20235;-73
2024/01/11 15:34:02;;;;;;;18.88;9.25;;;1.70;99.90;;;;;;4890308;29;20227;-73
2024/01/11 15:36:30;;;;;;;11.82;5.55;;;1.60;99.90;;;;;;4883429;29;20214;-76
2024/01/11 15:38:57;;;;;;;11.18;6.70;;;1.60;99.90;;;;;;4884933;29;20212;-73
2024/01/11 15:41:23;;;;;;;14.27;7.90;;;1.60;99.90;;;;;;4879285;29;20239;-74
2024/01/11 15:43:50;;;;;;;15.85;8.60;;;1.60;99.90;;;;;;4891777;29;20215;-74
2024/01/11 15:46:17;;;;;;;19.27;10.25;;;1.60;99.90;;;;;;4889104;29;20830;-74
2024/01/11 15:48:44;;;;;;;20.42;11.05;;;1.60;99.90;;;;;;4885889;29;20222;-74
2024/01/11 15:51:10;;;;;;;12.45;7.18;;;1.60;99.90;;;;;;4883075;29;20334;-74
2024/01/11 15:53:39;;;;;;;16.77;8.90;;;1.60;99.90;;;;;;4878534;29;20232;-74
2024/01/11 15:56:06;;;;;;;26.73;11.48;;;1.60;99.90;;;;;;4889375;29;20237;-75
2024/01/11 15:58:32;;;;;;;16.42;7.60;;;1.60;99.90;;;;;;4887938;29;20687;-74
2024/01/11 16:00:59;;;;;;;15.07;7.35;;;1.60;99.90;;;;;;4882196;29;20373;-74
2024/01/11 16:03:26;;;;;;;16.92;7.95;;;1.60;99.90;;;;;;4887930;29;20605;-74
2024/01/11 16:05:53;;;;;;;19.50;11.30;;;1.60;99.90;;;;;;4886775;29;20680;-75
2024/01/11 16:08:20;;;;;;;17.27;8.07;;;1.60;99.90;;;;;;4891405;29;20220;-74
2024/01/11 16:10:49;;;;;;;22.13;8.98;;;1.60;99.90;;;;;;4887506;29;20235;-75
2024/01/11 16:13:15;;;;;;;16.40;7.28;;;1.60;99.90;;;;;;4893717;29;20219;-74
2024/01/11 16:15:42;;;;;;;26.08;9.45;;;1.60;99.90;;;;;;4892498;29;20616;-74
2024/01/11 16:18:09;;;;;;;10.27;6.78;;;1.60;99.90;;;;;;4888941;29;20226;-73
2024/01/11 16:20:36;;;;;;;13.27;7.35;;;1.60;99.90;;;;;;4882599;29;20247;-73
2024/01/11 16:23:02;;;;;;;13.57;10.30;;;1.60;99.90;;;;;;4895811;29;20212;-73
2024/01/11 16:25:29;;;;;;;13.15;7.60;;;1.60;99.90;;;;;;4893267;29;20214;-72
2024/01/11 16:27:57;;;;;;;17.88;8.48;;;1.60;99.90;;;;;;4893075;29;20231;-72
2024/01/11 16:30:24;;;;;;;16.20;9.15;;;1.60;99.90;;;;;;4895754;29;20211;-73
2024/01/11 16:32:51;;;;;;;11.15;7.53;;;1.60;99.90;;;;;;4892676;29;20227;-74
2024/01/11 16:35:17;;;;;;;16.85;9.00;;;1.60;99.90;;;;;;4893855;29;20235;-73
2024/01/11 16:37:44;;;;;;;14.88;9.07;;;1.60;99.90;;;;;;4899673;29;20309;-73
2024/01/11 16:40:13;;;;;;;13.27;8.80;;;1.60;99.90;;;;;;4894425;29;20219;-74
2024/01/11 16:42:40;;;;;;;11.20;5.60;;;1.60;99.90;;;;;;4889509;29;20219;-73
2024/01/11 16:45:09;;;;;;;10.80;6.55;;;1.60;99.90;;;;;;4891720;29;20203;-73
2024/01/11 16:47:37;;;;;;;35.05;9.25;;;1.60;99.90;;;;;;4885438;29;20238;-74
2024/01/11 16:50:05;;;;;;;14.85;9.20;;;1.60;99.90;;;;;;4892615;29;20207;-74
2024/01/11 16:52:32;;;;;;;9.48;6.80;;;1.60;99.90;;;;;;4879567;29;20237;-74
2024/01/11 16:54:58;;;;;;;8.45;6.30;;;1.60;99.90;;;;;;4884861;29;20327;-74
2024/01/11 16:57:25;;;;;;;15.00;8.63;;;1.60;99.90;;;;;;4885391;29;20213;-73
2024/01/11 16:59:52;;;;;;;17.67;8.48;;;1.60;99.90;;;;;;4885666;29;20220;-73
2024/01/11 17:02:21;;;;;;;18.38;9.05;;;1.60;99.90;;;;;;4886308;29;20360;-74
2024/01/11 17:04:48;;;;;;;16.75;8.98;;;1.60;99.90;;;;;;4892919;29;20628;-73
2024/01/11 17:07:15;;;;;;;22.90;8.70;;;1.60;99.90;;;;;;4889801;29;20249;-74
2024/01/11 17:09:42;;;;;;;30.67;13.05;;;1.60;99.90;;;;;;4889060;29;20217;-74
2024/01/11 17:12:09;;;;;;;11.32;7.38;;;1.60;99.90;;;;;;4896912;29;20235;-72
2024/01/11 17:14:36;;;;;;;15.02;7.03;;;1.60;99.90;;;;;;4890805;29;20223;-73
2024/01/11 17:17:05;;;;;;;17.10;6.25;;;1.60;99.90;;;;;;4884706;29;20742;-72
2024/01/11 17:19:34;;;;;;;13.00;6.93;;;1.60;99.90;;;;;;4889012;29;20212;-73
2024/01/11 17:22:01;;;;;;;22.67;10.20;;;1.50;99.90;;;;;;4886570;29;20240;-72
2024/01/11 17:24:29;;;;;;;20.45;10.73;;;1.50;99.90;;;;;;4890516;29;20203;-73
2024/01/11 17:26:57;;;;;;;18.65;10.13;;;1.50;99.90;;;;;;4887413;29;20218;-73
2024/01/11 17:29:25;;;;;;;18.35;7.82;;;1.50;99.90;;;;;;4882082;29;20243;-72
2024/01/11 17:31:53;;;;;;;20.05;9.40;;;1.50;99.90;;;;;;4890958;29;20245;-72
2024/01/11 17:34:20;;;;;;;30.92;10.95;;;1.60;99.90;;;;;;4888457;29;20235;-74
2024/01/11 17:36:48;;;;;;;14.98;7.95;;;1.50;99.90;;;;;;4889454;29;20534;-71
2024/01/11 17:39:15;;;;;;;21.73;10.88;;;1.50;99.90;;;;;;4887402;29;20212;-71
2024/01/11 17:41:42;;;;;;;23.65;12.88;;;1.50;99.90;;;;;;4884608;29;20233;-71